Time;durP1;ratioP1;P1;durP2;ratioP2;P2;SDS_P1;SDS_P2;PMS_P1;PMS_P2;Temp;Humidity;BMP_temperature;BMP_pressure;BME280_temperature;BME280_humidity;BME280_pressure;Samples;Min_cycle;Max_cycle;Signal;HPM_P1;HPM_P2
2022/10/05 00:01:33;;;;;;;1.30;1.10;;;14.00;47.10;;;;;;4984098;28;20548;-74
2022/10/05 00:04:14;;;;;;;1.30;1.13;;;14.20;47.50;;;;;;4994044;28;20775;-75
2022/10/05 00:06:46;;;;;;;1.30;1.10;;;13.80;47.80;;;;;;4994589;28;20421;-74
2022/10/05 00:09:19;;;;;;;1.30;1.10;;;13.80;47.50;;;;;;4994555;28;20398;-74
2022/10/05 00:11:45;;;;;;;1.30;1.10;;;13.90;48.10;;;;;;4993800;28;20457;-74
2022/10/05 00:14:26;;;;;;;1.30;1.10;;;13.90;46.20;;;;;;4994238;28;20405;-74
2022/10/05 00:16:52;;;;;;;1.30;1.10;;;14.00;46.80;;;;;;4994367;28;20393;-72
2022/10/05 00:19:36;;;;;;;1.30;1.10;;;14.00;46.90;;;;;;4993326;28;20440;-72
2022/10/05 00:22:17;;;;;;;1.30;1.10;;;13.70;46.70;;;;;;4994035;28;20291;-72
2022/10/05 00:24:44;;;;;;;1.30;1.10;;;13.70;46.40;;;;;;4993887;28;20455;-72
2022/10/05 00:27:19;;;;;;;1.30;1.20;;;13.80;47.20;;;;;;4993912;28;20470;-72
2022/10/05 00:29:49;;;;;;;1.30;1.10;;;13.60;47.30;;;;;;4994339;28;20904;-72
2022/10/05 00:32:15;;;;;;;1.30;1.20;;;13.90;47.20;;;;;;4993516;28;20440;-72
2022/10/05 00:34:42;;;;;;;1.30;1.10;;;13.60;46.60;;;;;;4993690;28;20421;-72
2022/10/05 00:37:08;;;;;;;1.30;1.10;;;14.00;46.70;;;;;;4994018;28;20417;-72
2022/10/05 00:39:37;;;;;;;1.30;1.10;;;13.80;47.90;;;;;;4994273;28;20428;-72
2022/10/05 00:42:24;;;;;;;1.30;1.17;;;13.90;47.20;;;;;;4992876;28;20600;-72
2022/10/05 00:44:53;;;;;;;1.30;1.10;;;13.60;45.60;;;;;;4994191;28;20401;-72
2022/10/05 00:47:34;;;;;;;1.30;1.20;;;13.60;46.20;;;;;;4993858;28;20410;-72
2022/10/05 00:50:02;;;;;;;1.30;1.30;;;13.60;45.90;;;;;;4993900;28;20528;-72
2022/10/05 00:52:59;;;;;;;1.33;1.10;;;13.50;46.70;;;;;;4993059;28;20429;-74
2022/10/05 00:55:31;;;;;;;1.30;1.13;;;13.60;45.90;;;;;;4992333;28;20421;-72
2022/10/05 00:58:14;;;;;;;1.30;1.10;;;13.40;45.90;;;;;;4993717;28;20492;-72
2022/10/05 01:00:55;;;;;;;1.30;1.10;;;13.20;47.20;;;;;;4993517;28;20821;-72
2022/10/05 01:03:29;;;;;;;1.30;1.20;;;13.20;47.80;;;;;;4993024;28;20947;-72
2022/10/05 01:06:13;;;;;;;1.30;1.20;;;13.20;47.70;;;;;;4993375;28;20377;-72
2022/10/05 01:09:06;;;;;;;1.30;1.10;;;13.30;47.60;;;;;;4993078;28;20404;-72
2022/10/05 01:11:39;;;;;;;1.30;1.10;;;13.10;48.10;;;;;;4992709;28;20491;-72
2022/10/05 01:14:39;;;;;;;1.30;1.20;;;13.40;47.80;;;;;;4993010;28;20778;-72
2022/10/05 01:17:12;;;;;;;1.30;1.10;;;13.20;46.70;;;;;;4993243;28;20394;-72
2022/10/05 01:19:44;;;;;;;1.30;1.10;;;13.20;47.60;;;;;;4992981;28;20428;-72
2022/10/05 01:22:24;;;;;;;1.30;1.00;;;13.10;47.90;;;;;;5007603;28;20471;-72
2022/10/05 01:25:11;;;;;;;1.30;1.10;;;13.10;47.20;;;;;;4993139;28;20397;-72
2022/10/05 01:28:11;;;;;;;1.30;1.03;;;12.90;47.10;;;;;;4992930;28;20887;-72
2022/10/05 01:31:06;;;;;;;1.30;1.10;;;13.10;47.30;;;;;;4991980;28;20405;-72
2022/10/05 01:33:35;;;;;;;1.40;1.20;;;13.20;47.10;;;;;;4988268;28;20217;-72
2022/10/05 01:36:18;;;;;;;1.30;1.20;;;13.40;46.50;;;;;;4992788;28;20409;-74
2022/10/05 01:38:58;;;;;;;1.30;1.13;;;13.30;46.20;;;;;;4992660;28;20417;-72
2022/10/05 01:41:26;;;;;;;1.30;1.10;;;13.10;47.30;;;;;;4992155;28;20276;-72
2022/10/05 01:44:11;;;;;;;1.30;1.10;;;13.20;47.10;;;;;;5007435;28;20205;-72
2022/10/05 01:46:44;;;;;;;1.30;1.08;;;13.10;47.20;;;;;;4992565;28;20193;-72
2022/10/05 01:49:34;;;;;;;1.30;1.10;;;13.10;46.60;;;;;;4992562;28;20174;-72
2022/10/05 01:52:38;;;;;;;1.30;1.10;;;13.10;46.70;;;;;;4992132;28;20197;-72
2022/10/05 01:55:25;;;;;;;1.30;1.00;;;13.00;47.60;;;;;;4992849;28;20253;-72
2022/10/05 01:58:06;;;;;;;1.30;1.10;;;13.00;46.90;;;;;;4992417;28;20264;-72
2022/10/05 02:01:07;;;;;;;1.30;1.10;;;13.10;47.30;;;;;;4989564;28;20445;-72
2022/10/05 02:03:38;;;;;;;1.30;1.10;;;13.00;46.50;;;;;;5008691;28;20571;-72
2022/10/05 02:06:14;;;;;;;1.30;1.10;;;13.30;48.00;;;;;;5009737;28;20546;-72
2022/10/05 02:08:52;;;;;;;1.30;1.20;;;13.00;46.90;;;;;;5001445;28;20578;-73
2022/10/05 02:11:18;;;;;;;1.30;1.10;;;13.00;47.10;;;;;;4988813;28;20680;-72
2022/10/05 02:13:57;;;;;;;1.30;1.10;;;13.10;47.50;;;;;;4988930;28;20233;-72
2022/10/05 02:16:53;;;;;;;1.30;1.10;;;13.10;47.60;;;;;;4989920;28;20220;-72
2022/10/05 02:19:28;;;;;;;1.30;1.10;;;13.60;46.30;;;;;;4950961;29;20524;-72
2022/10/05 02:22:09;;;;;;;1.30;1.10;;;13.10;46.00;;;;;;4950615;29;20474;-72
2022/10/05 02:24:38;;;;;;;1.30;1.10;;;13.00;46.60;;;;;;4950706;29;20410;-72
2022/10/05 02:27:06;;;;;;;1.30;1.00;;;13.10;47.10;;;;;;4950963;29;20183;-73
2022/10/05 02:29:36;;;;;;;1.30;1.00;;;13.00;47.30;;;;;;4950935;29;20543;-73
2022/10/05 02:32:23;;;;;;;1.30;1.15;;;12.90;47.50;;;;;;4950631;29;20587;-72
2022/10/05 02:34:49;;;;;;;1.30;1.10;;;13.10;48.20;;;;;;4950701;28;20183;-72
2022/10/05 02:37:37;;;;;;;1.30;1.07;;;12.90;47.30;;;;;;4951142;29;20434;-72
2022/10/05 02:40:18;;;;;;;1.30;1.00;;;12.80;46.60;;;;;;4934299;29;20194;-72
2022/10/05 02:42:56;;;;;;;1.30;1.10;;;12.90;46.50;;;;;;4935041;29;20306;-72
2022/10/05 02:46:05;;;;;;;1.30;1.10;;;12.80;46.50;;;;;;4935502;29;20814;-72
2022/10/05 02:48:58;;;;;;;1.30;1.08;;;12.80;45.70;;;;;;4897818;29;20272;-72
2022/10/05 02:51:33;;;;;;;1.30;1.10;;;12.90;46.60;;;;;;4935225;29;20198;-72
2022/10/05 02:54:04;;;;;;;1.30;1.10;;;13.10;46.40;;;;;;4935344;29;20164;-72
2022/10/05 02:56:38;;;;;;;1.30;1.08;;;12.70;45.90;;;;;;4985655;28;20190;-72
2022/10/05 02:59:13;;;;;;;1.30;1.20;;;12.60;47.20;;;;;;4995853;28;20173;-72
2022/10/05 03:01:49;;;;;;;1.30;1.17;;;12.50;46.80;;;;;;4995208;28;20458;-72
2022/10/05 03:04:37;;;;;;;1.30;1.10;;;12.50;47.30;;;;;;4995235;28;20208;-74
2022/10/05 03:07:16;;;;;;;1.60;1.33;;;12.60;47.60;;;;;;4995995;28;20162;-72
2022/10/05 03:10:08;;;;;;;1.30;1.10;;;12.80;48.00;;;;;;4995980;28;20308;-72
2022/10/05 03:13:12;;;;;;;1.30;1.20;;;12.60;47.80;;;;;;4984825;28;20229;-72
2022/10/05 03:16:01;;;;;;;1.30;1.10;;;12.50;47.40;;;;;;5020701;22;20239;-70
2022/10/05 03:18:47;;;;;;;1.30;1.17;;;12.40;47.60;;;;;;5012390;28;20435;-69
2022/10/05 03:21:23;;;;;;;1.30;1.00;;;12.50;46.90;;;;;;5014388;28;20288;-69
2022/10/05 03:23:52;;;;;;;1.30;1.10;;;12.60;46.70;;;;;;5014655;28;20723;-68
2022/10/05 03:26:40;;;;;;;1.30;1.20;;;12.70;46.20;;;;;;5014862;28;20495;-68
2022/10/05 03:29:27;;;;;;;1.30;1.10;;;12.80;45.50;;;;;;5014576;28;20248;-69
2022/10/05 03:32:11;;;;;;;1.30;1.10;;;12.60;46.50;;;;;;5014517;28;20178;-68
2022/10/05 03:34:47;;;;;;;1.30;1.10;;;12.50;46.50;;;;;;5014552;28;20651;-68
2022/10/05 03:37:30;;;;;;;1.30;1.02;;;12.90;47.30;;;;;;5014571;28;20660;-68
2022/10/05 03:40:18;;;;;;;1.30;1.10;;;12.50;46.50;;;;;;5014716;28;20542;-69
2022/10/05 03:43:10;;;;;;;1.30;1.10;;;12.40;45.80;;;;;;5013790;28;20256;-69
2022/10/05 03:45:47;;;;;;;1.30;1.00;;;12.40;45.90;;;;;;5014169;28;20194;-68
2022/10/05 03:48:31;;;;;;;1.30;1.10;;;12.30;46.60;;;;;;5014493;28;20177;-68
2022/10/05 03:51:14;;;;;;;1.30;1.15;;;12.10;46.50;;;;;;5014364;28;20185;-69
2022/10/05 03:53:48;;;;;;;1.30;1.08;;;12.10;47.00;;;;;;5012819;28;20161;-70
2022/10/05 03:56:32;;;;;;;1.30;1.10;;;12.20;46.90;;;;;;5014277;28;20219;-68
2022/10/05 03:59:16;;;;;;;1.30;1.17;;;12.30;46.70;;;;;;5014003;28;20176;-68
2022/10/05 04:01:55;;;;;;;1.30;1.10;;;12.20;46.90;;;;;;5013758;28;20275;-69
2022/10/05 04:04:36;;;;;;;1.30;1.10;;;12.30;47.40;;;;;;5013963;28;20248;-68
2022/10/05 04:07:02;;;;;;;1.30;1.17;;;12.30;47.20;;;;;;5014043;28;20235;-68
2022/10/05 04:09:39;;;;;;;1.30;1.10;;;12.20;47.10;;;;;;5013941;28;20193;-68
2022/10/05 04:12:08;;;;;;;1.30;1.10;;;12.20;47.30;;;;;;5013444;28;20480;-68
2022/10/05 04:14:40;;;;;;;1.30;1.00;;;12.10;47.50;;;;;;5009899;28;20276;-68
2022/10/05 04:17:20;;;;;;;1.30;1.10;;;12.20;47.60;;;;;;5013550;28;20221;-68
2022/10/05 04:20:02;;;;;;;1.30;1.10;;;12.20;47.90;;;;;;5013901;28;20168;-68
2022/10/05 04:22:45;;;;;;;1.30;1.20;;;12.20;48.30;;;;;;5013315;28;20193;-68
2022/10/05 04:25:19;;;;;;;1.30;1.20;;;12.30;48.10;;;;;;5013656;28;20232;-68
2022/10/05 04:27:52;;;;;;;1.30;1.10;;;12.40;48.40;;;;;;5013044;28;20240;-69
2022/10/05 04:30:21;;;;;;;1.30;1.17;;;12.30;48.30;;;;;;5013518;28;20591;-70
2022/10/05 04:32:52;;;;;;;1.30;1.10;;;12.30;47.60;;;;;;5013069;28;20605;-69
2022/10/05 04:35:24;;;;;;;1.30;1.17;;;12.30;48.00;;;;;;5013152;28;20260;-69
2022/10/05 04:38:06;;;;;;;1.30;1.10;;;12.30;47.60;;;;;;5013504;28;20161;-69
2022/10/05 04:41:01;;;;;;;1.30;1.10;;;12.30;48.10;;;;;;5012021;28;20650;-70
2022/10/05 04:43:55;;;;;;;1.30;1.10;;;12.30;47.50;;;;;;5012494;28;20264;-69
2022/10/05 04:47:06;;;;;;;1.30;1.13;;;12.30;47.20;;;;;;5008035;28;20561;-70
2022/10/05 04:49:56;;;;;;;1.30;1.10;;;12.20;46.50;;;;;;4974412;28;20329;-69
2022/10/05 04:52:43;;;;;;;1.30;1.20;;;12.20;46.40;;;;;;4993080;28;20181;-70
2022/10/05 04:55:28;;;;;;;1.30;1.10;;;12.10;47.10;;;;;;4993493;28;20211;-69
2022/10/05 04:58:36;;;;;;;1.30;1.00;;;12.10;46.50;;;;;;4993384;28;20338;-70
2022/10/05 05:01:13;;;;;;;1.30;1.20;;;12.30;45.80;;;;;;4992881;28;20400;-69
2022/10/05 05:03:41;;;;;;;1.30;1.10;;;12.20;46.30;;;;;;4992893;28;20173;-69
2022/10/05 05:06:23;;;;;;;1.30;1.10;;;12.20;46.00;;;;;;4992053;28;20202;-69
2022/10/05 05:09:12;;;;;;;1.30;1.10;;;12.10;46.20;;;;;;4993248;28;20202;-69
2022/10/05 05:11:57;;;;;;;1.30;1.10;;;11.90;46.50;;;;;;4992909;28;20185;-71
2022/10/05 05:14:22;;;;;;;1.30;1.10;;;12.00;46.00;;;;;;4993063;28;20205;-69
2022/10/05 05:17:09;;;;;;;1.30;1.10;;;11.90;46.60;;;;;;4993060;28;20249;-69
2022/10/05 05:19:58;;;;;;;1.30;1.10;;;11.80;47.30;;;;;;4992872;28;20168;-69
2022/10/05 05:22:45;;;;;;;1.30;1.10;;;11.80;46.60;;;;;;4992673;28;20206;-70
2022/10/05 05:25:18;;;;;;;1.30;1.10;;;11.80;47.00;;;;;;4992957;28;20155;-69
2022/10/05 05:28:08;;;;;;;1.30;1.10;;;11.80;45.40;;;;;;4993046;28;20196;-69
2022/10/05 05:30:49;;;;;;;1.30;1.10;;;11.80;45.60;;;;;;4992944;28;20193;-69
2022/10/05 05:33:22;;;;;;;1.30;1.00;;;11.70;46.30;;;;;;4992825;28;20251;-70
2022/10/05 05:36:05;;;;;;;1.30;1.00;;;11.70;47.10;;;;;;4991359;28;20296;-69
2022/10/05 05:38:49;;;;;;;1.30;1.13;;;11.70;47.10;;;;;;4992610;28;20662;-70
2022/10/05 05:41:19;;;;;;;1.30;1.10;;;11.70;46.80;;;;;;4992441;28;20198;-69
2022/10/05 05:43:57;;;;;;;2.40;1.92;;;11.70;46.50;;;;;;4992109;28;20327;-70
2022/10/05 05:46:30;;;;;;;1.30;1.20;;;11.90;46.40;;;;;;4992775;28;20200;-70
2022/10/05 05:48:57;;;;;;;1.30;1.10;;;11.80;45.70;;;;;;4992679;28;20196;-69
2022/10/05 05:51:33;;;;;;;1.30;1.00;;;11.70;46.00;;;;;;4992313;28;20305;-69
2022/10/05 05:54:19;;;;;;;1.30;1.00;;;11.70;46.40;;;;;;4992287;28;20183;-69
2022/10/05 05:56:59;;;;;;;1.30;1.10;;;11.70;46.30;;;;;;4992342;28;20208;-69
2022/10/05 05:59:31;;;;;;;1.30;1.10;;;11.70;46.20;;;;;;4992580;28;20608;-69
2022/10/05 06:02:08;;;;;;;1.30;1.08;;;11.70;46.60;;;;;;4992364;28;20690;-70
2022/10/05 06:04:40;;;;;;;1.30;1.20;;;11.70;47.20;;;;;;4992242;28;20169;-69
2022/10/05 06:07:13;;;;;;;1.30;1.10;;;11.70;47.60;;;;;;4992507;28;20192;-69
2022/10/05 06:09:45;;;;;;;1.30;1.10;;;11.70;46.50;;;;;;4992343;28;20537;-69
2022/10/05 06:12:17;;;;;;;1.30;1.10;;;11.90;46.30;;;;;;4991941;28;20185;-69
2022/10/05 06:14:50;;;;;;;1.30;1.20;;;11.80;46.30;;;;;;4992013;28;20197;-69
2022/10/05 06:17:22;;;;;;;1.30;1.05;;;12.10;46.00;;;;;;4991521;28;20300;-70
2022/10/05 06:19:49;;;;;;;1.30;1.17;;;12.10;45.70;;;;;;4992116;28;20181;-69
2022/10/05 06:22:24;;;;;;;1.30;1.20;;;12.00;45.70;;;;;;4991460;28;20579;-69
2022/10/05 06:24:52;;;;;;;1.30;1.20;;;11.90;47.70;;;;;;4991869;28;20200;-69
2022/10/05 06:27:58;;;;;;;1.30;1.00;;;12.00;47.20;;;;;;4992100;28;20242;-70
2022/10/05 06:30:28;;;;;;;1.30;1.10;;;12.10;47.60;;;;;;4950668;29;20181;-69
2022/10/05 06:32:53;;;;;;;1.30;1.00;;;12.10;47.40;;;;;;4950625;29;20193;-70
2022/10/05 06:35:33;;;;;;;1.30;1.10;;;12.30;47.60;;;;;;4950783;29;20266;-69
2022/10/05 06:38:05;;;;;;;1.30;1.10;;;12.20;47.50;;;;;;4951161;29;20174;-70
2022/10/05 06:40:57;;;;;;;1.30;1.10;;;12.40;48.30;;;;;;4950912;29;20226;-69
2022/10/05 06:43:46;;;;;;;1.30;1.20;;;12.40;47.90;;;;;;4950631;29;20182;-69
2022/10/05 06:46:38;;;;;;;1.30;1.10;;;12.50;49.10;;;;;;4951092;29;20229;-69
2022/10/05 06:49:25;;;;;;;1.30;1.10;;;12.80;48.00;;;;;;4950839;28;20183;-70
2022/10/05 06:52:13;;;;;;;1.30;1.10;;;13.00;47.60;;;;;;4950488;29;20433;-69
2022/10/05 06:54:54;;;;;;;1.30;1.10;;;13.20;45.80;;;;;;4950295;28;20192;-70
2022/10/05 06:57:48;;;;;;;1.30;1.20;;;13.30;47.20;;;;;;4950881;29;20446;-69
2022/10/05 07:00:21;;;;;;;1.30;1.20;;;13.30;46.90;;;;;;4955920;28;20419;-69
2022/10/05 07:03:14;;;;;;;1.30;1.10;;;13.30;48.00;;;;;;4991086;28;20452;-70
2022/10/05 07:05:52;;;;;;;1.30;1.17;;;13.40;47.70;;;;;;4991457;28;20461;-70
2022/10/05 07:08:33;;;;;;;1.30;1.10;;;13.80;46.70;;;;;;4991908;28;20389;-70
2022/10/05 07:11:19;;;;;;;1.30;1.10;;;13.90;46.70;;;;;;4991310;28;20420;-69
2022/10/05 07:13:56;;;;;;;1.30;1.10;;;14.00;45.60;;;;;;4991180;28;20440;-69
2022/10/05 07:16:44;;;;;;;1.30;1.10;;;14.10;46.10;;;;;;4991456;28;20451;-69
2022/10/05 07:19:31;;;;;;;1.30;1.20;;;14.20;46.70;;;;;;4991896;28;20809;-69
2022/10/05 07:22:26;;;;;;;1.30;1.30;;;14.40;45.30;;;;;;4991057;28;20451;-70
2022/10/05 07:25:07;;;;;;;1.30;1.20;;;14.40;45.80;;;;;;4991397;28;20803;-70
2022/10/05 07:27:37;;;;;;;1.30;1.20;;;14.60;44.80;;;;;;4993932;28;20824;-69
2022/10/05 07:30:12;;;;;;;1.30;1.13;;;14.70;45.10;;;;;;4995461;28;20396;-70
2022/10/05 07:32:43;;;;;;;1.30;1.10;;;14.90;44.10;;;;;;4994654;28;20416;-69
2022/10/05 07:37:52;;;;;;;1.30;1.20;;;15.00;44.70;;;;;;4994847;28;20397;-69
2022/10/05 07:37:58;;;;;;;1.30;1.20;;;15.00;43.40;;;;;;4995299;28;20405;-69
2022/10/05 07:40:36;;;;;;;1.30;1.10;;;15.20;45.40;;;;;;4995190;28;20432;-69
2022/10/05 07:43:38;;;;;;;1.30;1.20;;;15.20;44.00;;;;;;4994953;28;20759;-69
2022/10/05 07:46:20;;;;;;;1.30;1.17;;;15.10;43.70;;;;;;4995136;28;20934;-69
2022/10/05 07:48:57;;;;;;;1.30;1.10;;;14.90;44.90;;;;;;4994674;28;20401;-69
2022/10/05 07:51:44;;;;;;;1.30;1.30;;;14.80;45.20;;;;;;4995101;28;20479;-69
2022/10/05 07:54:29;;;;;;;1.30;1.10;;;14.80;45.00;;;;;;4994603;28;20815;-69
2022/10/05 07:57:25;;;;;;;1.30;1.20;;;15.40;44.60;;;;;;4994791;28;20486;-69
2022/10/05 08:00:03;;;;;;;1.30;1.20;;;15.30;44.10;;;;;;4994408;28;20436;-70
2022/10/05 08:02:32;;;;;;;1.30;1.13;;;15.50;43.20;;;;;;4994032;28;20449;-70
2022/10/05 08:05:16;;;;;;;1.30;1.20;;;15.70;42.70;;;;;;4994833;28;20433;-69
2022/10/05 08:07:42;;;;;;;1.30;1.07;;;15.90;42.50;;;;;;4994552;28;20784;-69
2022/10/05 08:10:32;;;;;;;1.30;1.20;;;16.10;42.20;;;;;;4994641;28;20406;-69
2022/10/05 08:13:22;;;;;;;1.30;1.10;;;16.30;42.20;;;;;;4993827;28;20938;-70
2022/10/05 08:15:56;;;;;;;1.30;1.00;;;16.20;42.60;;;;;;4994068;28;20456;-69
2022/10/05 08:18:43;;;;;;;1.30;1.10;;;16.20;43.30;;;;;;4994398;28;20417;-69
2022/10/05 08:21:10;;;;;;;1.33;1.17;;;16.30;43.40;;;;;;4994014;28;20439;-69
2022/10/05 08:23:56;;;;;;;1.30;1.20;;;16.40;43.40;;;;;;4993896;28;20906;-69
2022/10/05 08:26:27;;;;;;;1.30;1.20;;;16.30;44.30;;;;;;4994197;28;20442;-69
2022/10/05 08:29:04;;;;;;;1.30;1.20;;;16.00;44.50;;;;;;4994189;28;20412;-69
2022/10/05 08:31:36;;;;;;;1.30;1.10;;;15.90;44.30;;;;;;4992481;28;20432;-69
2022/10/05 08:34:29;;;;;;;1.30;1.13;;;16.00;46.00;;;;;;4994096;28;20497;-69
2022/10/05 08:37:03;;;;;;;1.30;1.20;;;16.30;44.50;;;;;;4992479;28;20441;-69
2022/10/05 08:39:38;;;;;;;1.30;1.10;;;16.40;44.70;;;;;;4993222;28;20386;-70
2022/10/05 08:42:25;;;;;;;1.30;1.20;;;16.30;45.40;;;;;;4993513;28;20536;-70
2022/10/05 08:44:59;;;;;;;1.30;1.10;;;16.60;44.90;;;;;;4993640;28;20405;-70
2022/10/05 08:47:50;;;;;;;1.30;1.10;;;16.70;44.90;;;;;;4993704;28;20413;-69
2022/10/05 08:50:33;;;;;;;1.30;1.00;;;16.90;44.30;;;;;;4993941;28;20385;-69
2022/10/05 08:53:20;;;;;;;1.30;1.10;;;17.10;43.30;;;;;;4993545;28;20412;-69
2022/10/05 08:56:07;;;;;;;1.30;1.13;;;17.70;42.60;;;;;;4993716;28;20437;-70
2022/10/05 08:58:56;;;;;;;1.30;1.17;;;18.10;41.60;;;;;;4993666;28;20400;-70
2022/10/05 09:01:42;;;;;;;1.30;1.13;;;18.20;40.40;;;;;;4993141;28;20531;-70
2022/10/05 09:04:28;;;;;;;1.30;1.10;;;18.50;40.20;;;;;;4993481;28;20416;-70
2022/10/05 09:07:27;;;;;;;1.30;1.10;;;18.50;39.70;;;;;;4993479;28;20448;-69
2022/10/05 09:10:15;;;;;;;1.30;1.20;;;18.10;40.10;;;;;;4993456;28;20421;-70
2022/10/05 09:13:14;;;;;;;1.30;1.20;;;18.40;40.20;;;;;;4992747;28;20761;-70
2022/10/05 09:15:39;;;;;;;1.30;1.20;;;18.80;39.70;;;;;;4992942;28;20441;-70
2022/10/05 09:18:35;;;;;;;1.30;1.20;;;18.90;39.20;;;;;;4993303;28;20405;-70
2022/10/05 09:21:25;;;;;;;1.30;1.10;;;19.10;38.70;;;;;;4993309;28;20198;-70
2022/10/05 09:24:11;;;;;;;1.30;1.30;;;18.90;38.40;;;;;;4992847;28;20440;-69
2022/10/05 09:26:39;;;;;;;1.30;1.10;;;18.80;40.40;;;;;;4992971;28;20483;-70
2022/10/05 09:29:26;;;;;;;1.30;1.10;;;18.70;39.40;;;;;;4993207;28;20401;-70
2022/10/05 09:32:39;;;;;;;1.30;1.10;;;18.90;38.90;;;;;;4992570;28;20391;-70
2022/10/05 09:35:17;;;;;;;1.30;1.20;;;18.70;40.40;;;;;;4992525;28;20452;-70
2022/10/05 09:37:57;;;;;;;1.30;1.20;;;18.70;40.40;;;;;;4992478;28;20445;-71
2022/10/05 09:40:43;;;;;;;1.30;1.10;;;19.00;40.70;;;;;;4992968;28;20913;-70
2022/10/05 09:43:15;;;;;;;1.30;1.20;;;19.20;40.10;;;;;;4992609;28;20881;-70
2022/10/05 09:45:59;;;;;;;1.30;1.10;;;19.60;40.30;;;;;;4992566;28;20480;-70
2022/10/05 09:48:27;;;;;;;1.30;1.10;;;19.90;38.30;;;;;;4992522;28;20596;-70
2022/10/05 09:51:18;;;;;;;1.30;1.20;;;20.30;38.20;;;;;;4991360;28;20411;-71
2022/10/05 09:54:09;;;;;;;1.30;1.20;;;20.20;38.50;;;;;;4990818;28;20437;-70
2022/10/05 09:56:35;;;;;;;1.30;1.20;;;20.00;38.70;;;;;;4992330;28;20428;-71
2022/10/05 09:59:21;;;;;;;1.30;1.10;;;20.00;38.70;;;;;;4992539;28;20778;-70
2022/10/05 10:02:03;;;;;;;1.30;1.10;;;20.80;36.90;;;;;;4991840;28;20208;-71
2022/10/05 10:04:37;;;;;;;1.30;1.20;;;21.20;36.60;;;;;;4992137;28;20390;-70
2022/10/05 10:07:33;;;;;;;1.30;1.20;;;21.20;35.70;;;;;;4992763;28;20424;-70
2022/10/05 10:10:32;;;;;;;1.30;1.10;;;21.20;35.50;;;;;;4992441;28;20396;-70
2022/10/05 10:13:01;;;;;;;1.30;1.20;;;21.80;35.40;;;;;;4992085;28;20463;-70
2022/10/05 10:15:58;;;;;;;1.30;1.20;;;21.50;36.20;;;;;;4991657;28;20440;-70
2022/10/05 10:18:44;;;;;;;1.30;1.20;;;21.90;35.00;;;;;;4992331;28;20418;-70
2022/10/05 10:21:29;;;;;;;1.30;1.20;;;22.10;34.70;;;;;;4992813;28;20837;-70
2022/10/05 10:24:45;;;;;;;1.30;1.27;;;22.30;33.10;;;;;;4991579;28;20604;-70
2022/10/05 10:27:35;;;;;;;1.30;1.10;;;22.20;33.70;;;;;;4975106;28;20807;-70
2022/10/05 10:30:07;;;;;;;1.30;1.20;;;22.60;32.90;;;;;;4992267;28;20405;-70
2022/10/05 10:32:47;;;;;;;1.30;1.13;;;23.00;32.90;;;;;;4991607;28;20422;-70
2022/10/05 10:35:33;;;;;;;1.30;1.20;;;23.10;32.00;;;;;;4992140;28;20818;-70
2022/10/05 10:38:49;;;;;;;1.30;1.20;;;23.20;31.90;;;;;;4991989;28;20416;-70
2022/10/05 10:41:26;;;;;;;1.30;1.20;;;23.60;33.10;;;;;;4969523;28;20484;-70
2022/10/05 10:44:25;;;;;;;1.30;1.10;;;24.10;30.00;;;;;;4991577;28;20417;-70
2022/10/05 10:47:03;;;;;;;1.30;1.10;;;23.90;30.50;;;;;;4990866;28;20448;-70
2022/10/05 10:49:54;;;;;;;1.30;1.10;;;23.90;30.50;;;;;;4991975;28;20416;-70
2022/10/05 10:52:23;;;;;;;1.30;1.03;;;23.80;30.40;;;;;;4972181;28;20417;-70
2022/10/05 10:54:57;;;;;;;1.30;1.10;;;24.30;33.10;;;;;;4991689;28;20444;-71
2022/10/05 10:57:46;;;;;;;1.30;1.10;;;24.70;29.80;;;;;;4991983;28;20507;-71
2022/10/05 11:00:44;;;;;;;1.30;1.00;;;25.00;29.60;;;;;;4991828;28;20919;-71
2022/10/05 11:03:31;;;;;;;1.30;1.10;;;25.70;29.60;;;;;;4992118;28;20448;-71
2022/10/05 11:06:57;;;;;;;1.30;1.10;;;26.20;28.60;;;;;;4995667;28;20478;-71
2022/10/05 11:09:42;;;;;;;1.30;1.10;;;26.70;29.30;;;;;;4981192;28;20829;-72
2022/10/05 11:12:38;;;;;;;1.40;1.27;;;27.00;26.20;;;;;;4995347;28;20922;-71
2022/10/05 11:15:42;;;;;;;1.20;1.00;;;26.80;26.50;;;;;;4995120;28;20405;-71
2022/10/05 11:18:43;;;;;;;1.20;1.03;;;27.20;27.90;;;;;;4995513;28;20782;-71
2022/10/05 11:21:35;;;;;;;1.20;1.10;;;27.60;27.50;;;;;;4995145;28;20443;-72
2022/10/05 11:24:19;;;;;;;1.20;1.00;;;27.80;27.40;;;;;;4994993;28;20409;-71
2022/10/05 11:26:51;;;;;;;1.20;1.07;;;27.50;26.30;;;;;;4995447;28;20511;-71
2022/10/05 11:29:44;;;;;;;1.20;1.00;;;28.00;25.70;;;;;;4995222;28;20503;-71
2022/10/05 11:32:29;;;;;;;1.20;1.00;;;28.20;25.80;;;;;;4995185;28;20401;-71
2022/10/05 11:35:13;;;;;;;1.20;1.00;;;28.40;26.30;;;;;;4995060;28;20758;-71
2022/10/05 11:38:16;;;;;;;1.20;1.00;;;28.70;23.50;;;;;;4995158;28;20437;-71
2022/10/05 11:41:01;;;;;;;1.20;1.00;;;28.20;25.10;;;;;;4994906;28;20409;-71
2022/10/05 11:44:04;;;;;;;1.20;1.00;;;28.00;26.10;;;;;;4994616;28;20409;-71
2022/10/05 11:46:46;;;;;;;1.20;0.90;;;27.00;25.60;;;;;;4995429;28;20504;-71
2022/10/05 11:49:48;;;;;;;1.20;1.10;;;27.00;25.50;;;;;;4995388;28;20401;-71
2022/10/05 11:52:38;;;;;;;1.20;1.00;;;26.60;25.30;;;;;;4988914;28;20792;-71
2022/10/05 11:55:15;;;;;;;1.20;1.00;;;27.40;25.20;;;;;;4994792;28;20578;-71
2022/10/05 11:58:16;;;;;;;1.20;1.00;;;28.10;24.20;;;;;;4994606;28;20415;-71
2022/10/05 12:00:53;;;;;;;1.20;1.00;;;28.30;22.50;;;;;;4988900;28;20559;-71
2022/10/05 12:03:33;;;;;;;1.20;1.00;;;27.80;22.80;;;;;;4994819;28;20397;-71
2022/10/05 12:06:20;;;;;;;1.20;1.00;;;27.60;24.50;;;;;;4994777;28;20447;-71
2022/10/05 12:09:14;;;;;;;1.23;1.10;;;27.60;24.60;;;;;;4994554;28;20400;-72
2022/10/05 12:11:58;;;;;;;1.23;1.10;;;27.20;23.30;;;;;;4994200;28;20413;-70
2022/10/05 12:14:48;;;;;;;1.20;1.00;;;27.30;24.30;;;;;;4993448;28;20419;-72
2022/10/05 12:17:37;;;;;;;1.23;1.10;;;27.40;23.40;;;;;;4994552;28;20488;-70
2022/10/05 12:20:34;;;;;;;1.20;1.00;;;26.90;22.90;;;;;;4994533;28;20420;-70
2022/10/05 12:23:16;;;;;;;1.20;1.10;;;27.20;22.80;;;;;;4989919;28;20472;-71
2022/10/05 12:25:49;;;;;;;1.30;1.10;;;27.30;22.70;;;;;;4994068;28;20448;-70
2022/10/05 12:28:26;;;;;;;1.27;1.13;;;27.40;22.30;;;;;;4994472;28;20429;-71
2022/10/05 12:30:52;;;;;;;1.20;1.00;;;27.50;22.80;;;;;;4993705;28;20412;-71
2022/10/05 12:33:26;;;;;;;1.30;1.10;;;27.50;23.30;;;;;;4994506;28;20468;-70
2022/10/05 12:36:28;;;;;;;1.20;1.10;;;27.40;22.80;;;;;;4994238;28;20200;-70
2022/10/05 12:39:22;;;;;;;1.20;1.00;;;27.60;22.00;;;;;;4988501;28;20464;-71
2022/10/05 12:42:10;;;;;;;1.30;1.10;;;27.50;21.40;;;;;;4993486;28;20445;-71
2022/10/05 12:44:53;;;;;;;1.20;1.10;;;26.70;21.90;;;;;;4987226;28;20575;-70
2022/10/05 12:47:31;;;;;;;1.20;1.10;;;26.90;22.00;;;;;;4993582;28;20428;-71
2022/10/05 12:50:15;;;;;;;1.20;1.00;;;27.40;21.40;;;;;;4993985;28;20463;-70
2022/10/05 12:53:00;;;;;;;1.20;1.00;;;27.40;20.90;;;;;;4993350;28;20745;-70
2022/10/05 12:55:34;;;;;;;1.20;1.00;;;26.90;22.20;;;;;;4993321;28;20401;-71
2022/10/05 12:58:14;;;;;;;1.20;1.10;;;27.70;21.20;;;;;;4993701;28;20479;-71
2022/10/05 13:01:14;;;;;;;1.30;1.03;;;28.00;19.90;;;;;;4992242;28;20417;-70
2022/10/05 13:04:07;;;;;;;1.30;1.10;;;27.90;20.20;;;;;;4984160;28;20520;-71
2022/10/05 13:06:41;;;;;;;1.20;1.10;;;27.90;18.90;;;;;;4987632;28;20429;-72
2022/10/05 13:09:20;;;;;;;1.20;1.10;;;27.60;21.20;;;;;;4993675;28;20396;-71
2022/10/05 13:11:52;;;;;;;1.20;1.00;;;28.00;20.00;;;;;;4993233;28;20389;-72
2022/10/05 13:14:41;;;;;;;1.30;1.10;;;28.10;19.10;;;;;;4993383;28;20483;-71
2022/10/05 13:17:19;;;;;;;1.20;1.07;;;28.60;18.20;;;;;;4993268;28;20479;-70
2022/10/05 13:19:55;;;;;;;1.20;1.00;;;28.90;17.80;;;;;;4993294;28;20486;-71
2022/10/05 13:22:31;;;;;;;1.23;1.10;;;27.80;18.40;;;;;;4992693;28;20452;-71
2022/10/05 13:24:59;;;;;;;1.20;1.00;;;28.20;19.80;;;;;;4992883;28;20817;-71
2022/10/05 13:27:30;;;;;;;1.20;1.00;;;28.40;18.20;;;;;;4993167;28;20429;-70
2022/10/05 13:30:18;;;;;;;1.20;1.00;;;28.10;18.60;;;;;;4993274;28;20408;-70
2022/10/05 13:32:56;;;;;;;1.20;1.00;;;28.20;17.50;;;;;;4992590;28;20397;-70
2022/10/05 13:35:24;;;;;;;1.30;1.10;;;28.30;17.10;;;;;;4992654;28;20397;-70
2022/10/05 13:38:33;;;;;;;1.20;1.00;;;28.30;17.90;;;;;;4992716;28;20781;-70
2022/10/05 13:41:15;;;;;;;1.20;1.00;;;29.10;18.10;;;;;;4992542;28;20399;-70
2022/10/05 13:44:23;;;;;;;1.20;1.07;;;29.00;15.80;;;;;;4992391;28;20857;-70
2022/10/05 13:47:11;;;;;;;1.20;1.00;;;29.10;15.50;;;;;;4992884;28;20780;-70
2022/10/05 13:49:42;;;;;;;1.20;1.10;;;28.90;14.80;;;;;;4992535;28;20880;-70
2022/10/05 13:52:31;;;;;;;1.20;1.10;;;28.20;15.30;;;;;;4992150;28;20920;-70
2022/10/05 13:55:23;;;;;;;1.20;1.00;;;28.10;15.20;;;;;;4973516;28;20421;-70
2022/10/05 13:58:07;;;;;;;1.20;1.03;;;28.10;15.20;;;;;;4991475;28;20483;-70
2022/10/05 14:00:42;;;;;;;1.20;1.00;;;28.40;14.20;;;;;;4992388;28;20450;-71
2022/10/05 14:03:28;;;;;;;1.20;1.00;;;28.60;14.30;;;;;;4992063;28;20931;-70
2022/10/05 14:05:56;;;;;;;1.20;1.00;;;27.90;15.40;;;;;;4992364;28;20491;-69